Time;durP1;ratioP1;P1;durP2;ratioP2;P2;SDS_P1;SDS_P2;PMS_P1;PMS_P2;Temp;Humidity;BMP_temperature;BMP_pressure;BME280_temperature;BME280_humidity;BME280_pressure;Samples;Min_cycle;Max_cycle;Signal;HPM_P1;HPM_P2
2023/08/30 00:00:30;;;;;;;;;;;12.70;99.90;;;;;;7613697;19;20531;-74
2023/08/30 00:03:03;;;;;;;;;;;12.70;99.90;;;;;;7614328;19;19921;-73
2023/08/30 00:05:38;;;;;;;;;;;12.70;99.90;;;;;;7609736;19;19922;-73
2023/08/30 00:08:10;;;;;;;;;;;12.70;99.90;;;;;;7615525;19;19958;-73
2023/08/30 00:10:43;;;;;;;;;;;12.70;99.90;;;;;;7612310;19;20117;-73
2023/08/30 00:13:15;;;;;;;;;;;12.70;99.90;;;;;;7616277;19;19914;-73
2023/08/30 00:15:47;;;;;;;;;;;12.70;99.90;;;;;;7615147;19;20246;-73
2023/08/30 00:18:19;;;;;;;;;;;12.70;99.90;;;;;;7613597;19;20369;-73
2023/08/30 00:20:51;;;;;;;;;;;12.80;99.90;;;;;;7611940;19;20314;-73
2023/08/30 00:23:24;;;;;;;;;;;12.80;99.90;;;;;;7617179;19;19923;-74
2023/08/30 00:25:56;;;;;;;;;;;12.80;99.90;;;;;;7608673;19;20490;-73
2023/08/30 00:28:28;;;;;;;;;;;12.80;99.90;;;;;;7613353;19;21027;-73
2023/08/30 00:31:01;;;;;;;;;;;12.80;99.90;;;;;;7614158;19;19923;-74
2023/08/30 00:33:33;;;;;;;;;;;12.80;99.90;;;;;;7608884;19;19922;-73
2023/08/30 00:36:06;;;;;;;;;;;12.80;99.90;;;;;;7612255;19;19968;-74
2023/08/30 00:38:38;;;;;;;;;;;12.70;99.90;;;;;;7612924;19;19926;-74
2023/08/30 00:41:10;;;;;;;;;;;12.70;99.90;;;;;;7612646;19;19951;-73
2023/08/30 00:43:43;;;;;;;;;;;12.80;99.90;;;;;;7611339;19;20282;-74
2023/08/30 00:46:15;;;;;;;;;;;12.70;99.90;;;;;;7615708;19;20842;-74
2023/08/30 00:48:49;;;;;;;;;;;12.70;99.90;;;;;;7609555;19;19938;-71
2023/08/30 00:51:21;;;;;;;;;;;12.70;99.90;;;;;;7616630;19;20335;-75
2023/08/30 00:53:58;;;;;;;;;;;12.70;99.90;;;;;;7611442;19;19922;-73
2023/08/30 00:56:30;;;;;;;;;;;12.60;99.90;;;;;;7609578;19;19915;-74
2023/08/30 00:59:03;;;;;;;;;;;12.60;99.90;;;;;;7607695;19;19922;-74
2023/08/30 01:01:38;;;;;;;;;;;12.70;99.90;;;;;;7611780;19;19959;-74
2023/08/30 01:04:12;;;;;;;;;;;12.70;99.90;;;;;;7612016;19;20346;-74
2023/08/30 01:06:44;;;;;;;;;;;12.70;99.90;;;;;;7611607;19;19927;-74
2023/08/30 01:09:16;;;;;;;;;;;12.70;99.90;;;;;;7613926;19;19922;-74
2023/08/30 01:11:53;;;;;;;;;;;12.60;99.90;;;;;;7608062;19;19946;-74
2023/08/30 01:14:28;;;;;;;;;;;12.60;99.90;;;;;;7612693;19;19918;-72
2023/08/30 01:17:00;;;;;;;;;;;12.60;99.90;;;;;;7607886;19;19926;-75
2023/08/30 01:19:43;;;;;;;;;;;12.60;99.90;;;;;;7612588;19;19950;-75
2023/08/30 01:22:19;;;;;;;;;;;12.60;99.90;;;;;;7608990;19;19978;-74
2023/08/30 01:25:00;;;;;;;;;;;12.60;99.90;;;;;;7608007;19;19942;-75
2023/08/30 01:27:34;;;;;;;;;;;12.60;99.90;;;;;;7610039;19;19918;-72
2023/08/30 01:30:08;;;;;;;;;;;12.50;99.90;;;;;;7609307;19;19926;-73
2023/08/30 01:32:41;;;;;;;;;;;12.60;99.90;;;;;;7607632;19;19922;-73
2023/08/30 01:35:19;;;;;;;;;;;12.60;99.90;;;;;;7608141;19;19919;-74
2023/08/30 01:37:51;;;;;;;;;;;12.60;99.90;;;;;;7607778;19;19922;-73
2023/08/30 01:40:23;;;;;;;;;;;12.60;99.90;;;;;;7608717;19;19938;-74
2023/08/30 01:42:57;;;;;;;;;;;12.60;99.90;;;;;;7607243;19;19918;-74
2023/08/30 01:45:30;;;;;;;;;;;12.70;99.90;;;;;;7612360;19;20326;-73
2023/08/30 01:48:03;;;;;;;;;;;12.60;99.90;;;;;;7603037;19;19992;-74
2023/08/30 01:50:36;;;;;;;;;;;12.60;99.90;;;;;;7613321;19;19926;-73
2023/08/30 01:53:10;;;;;;;;;;;12.60;99.90;;;;;;7608222;19;19925;-74
2023/08/30 01:55:42;;;;;;;;;;;12.60;99.90;;;;;;7608595;19;20381;-73
2023/08/30 01:58:14;;;;;;;;;;;12.60;99.90;;;;;;7602149;19;19918;-73
2023/08/30 02:00:47;;;;;;;;;;;12.60;99.90;;;;;;7607691;19;19926;-74
2023/08/30 02:03:19;;;;;;;;;;;12.50;99.90;;;;;;7608719;19;19929;-73
2023/08/30 02:06:02;;;;;;;;;;;12.50;99.90;;;;;;7608346;19;20333;-74
2023/08/30 02:08:40;;;;;;;;;;;12.50;99.90;;;;;;7610884;19;19915;-73
2023/08/30 02:11:19;;;;;;;;;;;12.50;99.90;;;;;;7606950;19;19951;-74
2023/08/30 02:13:52;;;;;;;;;;;12.50;99.90;;;;;;7609322;19;20028;-74
2023/08/30 02:16:26;;;;;;;;;;;12.50;99.90;;;;;;7606451;19;19942;-73
2023/08/30 02:18:58;;;;;;;;;;;12.50;99.90;;;;;;7605563;19;20880;-73
2023/08/30 02:21:30;;;;;;;;;;;12.50;99.90;;;;;;7613195;19;19931;-73
2023/08/30 02:24:02;;;;;;;;;;;12.50;99.90;;;;;;7620152;19;19927;-73
2023/08/30 02:26:35;;;;;;;;;;;12.50;99.90;;;;;;7613556;19;19934;-73
2023/08/30 02:29:09;;;;;;;;;;;12.50;99.90;;;;;;7613457;19;19937;-72
2023/08/30 02:31:42;;;;;;;;;;;12.50;99.90;;;;;;7616901;19;19978;-74
2023/08/30 02:34:14;;;;;;;;;;;12.50;99.90;;;;;;7617035;19;20046;-72
2023/08/30 02:36:49;;;;;;;;;;;12.50;99.90;;;;;;7614609;19;19927;-75
2023/08/30 02:39:21;;;;;;;;;;;12.60;99.90;;;;;;7615357;19;19921;-72
2023/08/30 02:41:54;;;;;;;;;;;12.60;99.90;;;;;;7615424;19;19951;-75
2023/08/30 02:44:26;;;;;;;;;;;12.60;99.90;;;;;;7614834;19;20259;-72
2023/08/30 02:46:58;;;;;;;;;;;12.60;99.90;;;;;;7613491;19;19915;-74
2023/08/30 02:49:31;;;;;;;;;;;12.60;99.90;;;;;;7611941;19;19922;-72
2023/08/30 02:52:03;;;;;;;;;;;12.60;99.90;;;;;;7615727;19;19918;-71
2023/08/30 02:54:36;;;;;;;;;;;12.60;99.90;;;;;;7614592;19;19923;-73
2023/08/30 02:57:08;;;;;;;;;;;12.60;99.90;;;;;;7612889;19;20348;-71
2023/08/30 02:59:40;;;;;;;;;;;12.70;99.90;;;;;;7611948;19;19919;-74
2023/08/30 03:02:12;;;;;;;;;;;12.70;99.90;;;;;;7614485;19;19952;-73
2023/08/30 03:04:44;;;;;;;;;;;12.70;99.90;;;;;;7613855;19;19952;-72
2023/08/30 03:07:16;;;;;;;;;;;12.70;99.90;;;;;;7612157;19;19922;-72
2023/08/30 03:09:52;;;;;;;;;;;12.80;99.90;;;;;;7612924;19;20623;-73
2023/08/30 03:12:25;;;;;;;;;;;12.80;99.90;;;;;;7613200;19;19919;-73
2023/08/30 03:14:58;;;;;;;;;;;12.70;99.90;;;;;;7613845;19;19918;-72
2023/08/30 03:17:31;;;;;;;;;;;12.70;99.90;;;;;;7612351;19;19922;-73
2023/08/30 03:20:05;;;;;;;;;;;12.70;99.90;;;;;;7609760;19;19948;-72
2023/08/30 03:22:37;;;;;;;;;;;12.60;99.90;;;;;;7613862;19;20551;-72
2023/08/30 03:25:10;;;;;;;;;;;12.60;99.90;;;;;;7615702;19;19925;-72
2023/08/30 03:27:44;;;;;;;;;;;12.60;99.90;;;;;;7612231;19;19953;-72
2023/08/30 03:30:19;;;;;;;;;;;12.50;99.90;;;;;;7614256;19;19992;-72
2023/08/30 03:32:52;;;;;;;;;;;12.70;99.90;;;;;;7610545;19;19926;-73
2023/08/30 03:35:25;;;;;;;;;;;12.60;99.90;;;;;;7614535;19;19910;-72
2023/08/30 03:37:57;;;;;;;;;;;12.60;99.90;;;;;;7608561;19;20575;-72
2023/08/30 03:40:30;;;;;;;;;;;12.60;99.90;;;;;;7613746;19;19918;-72
2023/08/30 03:43:03;;;;;;;;;;;12.60;99.90;;;;;;7612885;19;19955;-73
2023/08/30 03:45:36;;;;;;;;;;;12.50;99.90;;;;;;7613617;19;19921;-73
2023/08/30 03:48:08;;;;;;;;;;;12.50;99.90;;;;;;7611127;19;19922;-73
2023/08/30 03:50:41;;;;;;;;;;;12.50;99.90;;;;;;7618797;19;19926;-73
2023/08/30 03:53:17;;;;;;;;;;;12.60;99.90;;;;;;7618607;19;19955;-73
2023/08/30 03:55:49;;;;;;;;;;;12.50;99.90;;;;;;7606798;19;19923;-72
2023/08/30 03:58:23;;;;;;;;;;;12.50;99.90;;;;;;7614520;19;19922;-73
2023/08/30 04:00:56;;;;;;;;;;;12.50;99.90;;;;;;7613346;19;19927;-72
2023/08/30 04:03:29;;;;;;;;;;;12.50;99.90;;;;;;7615724;19;19918;-72
2023/08/30 04:06:01;;;;;;;;;;;12.50;99.90;;;;;;7609242;19;19994;-72
2023/08/30 04:08:34;;;;;;;;;;;12.50;99.90;;;;;;7618125;19;20010;-71
2023/08/30 04:11:06;;;;;;;;;;;12.60;99.90;;;;;;7610461;19;19935;-72
2023/08/30 04:13:39;;;;;;;;;;;12.60;99.90;;;;;;7613934;19;19922;-72
2023/08/30 04:16:11;;;;;;;;;;;12.60;99.90;;;;;;7610458;19;20531;-72
2023/08/30 04:18:44;;;;;;;;;;;12.60;99.90;;;;;;7608778;19;19941;-73
2023/08/30 04:21:16;;;;;;;;;;;12.60;99.90;;;;;;7611391;19;19922;-73
2023/08/30 04:23:49;;;;;;;;;;;12.60;99.90;;;;;;7609314;19;20517;-73
2023/08/30 04:26:22;;;;;;;;;;;12.70;99.90;;;;;;7610895;19;19953;-73
2023/08/30 04:28:54;;;;;;;;;;;12.70;99.90;;;;;;7607109;19;20243;-73
2023/08/30 04:31:27;;;;;;;;;;;12.60;99.90;;;;;;7613768;19;19929;-72
2023/08/30 04:33:59;;;;;;;;;;;12.70;99.90;;;;;;7606255;19;19933;-72
2023/08/30 04:36:32;;;;;;;;;;;12.70;99.90;;;;;;7613067;19;20268;-73
2023/08/30 04:39:04;;;;;;;;;;;12.70;99.90;;;;;;7608688;19;19914;-72
2023/08/30 04:41:37;;;;;;;;;;;12.70;99.90;;;;;;7620548;19;19923;-73
2023/08/30 04:44:10;;;;;;;;;;;12.70;99.90;;;;;;7616354;19;20787;-72
2023/08/30 04:46:42;;;;;;;;;;;12.70;99.90;;;;;;7622960;19;19931;-73
2023/08/30 04:49:15;;;;;;;;;;;12.70;99.90;;;;;;7616112;19;19922;-73
2023/08/30 04:51:48;;;;;;;;;;;12.70;99.90;;;;;;7621788;19;19923;-72
2023/08/30 04:54:20;;;;;;;;;;;12.70;99.90;;;;;;7620260;19;19978;-73
2023/08/30 04:56:53;;;;;;;;;;;12.70;99.90;;;;;;7620771;19;20010;-72
2023/08/30 04:59:30;;;;;;;;;;;12.70;99.90;;;;;;7622930;19;20278;-73
2023/08/30 05:02:02;;;;;;;;;;;12.80;99.90;;;;;;7619113;19;19978;-72
2023/08/30 05:04:38;;;;;;;;;;;12.70;99.90;;;;;;7620809;19;19967;-73
2023/08/30 05:07:10;;;;;;;;;;;12.70;99.90;;;;;;7619989;19;20049;-75
2023/08/30 05:09:43;;;;;;;;;;;12.70;99.90;;;;;;7622266;19;19914;-72
2023/08/30 05:12:15;;;;;;;;;;;12.70;99.90;;;;;;7622683;19;19982;-72
2023/08/30 05:14:48;;;;;;;;;;;12.70;99.90;;;;;;7626655;19;19949;-73
2023/08/30 05:17:20;;;;;;;;;;;12.50;99.90;;;;;;7622578;19;19918;-74
2023/08/30 05:19:53;;;;;;;;;;;12.50;99.90;;;;;;7624534;19;19918;-73
2023/08/30 05:22:26;;;;;;;;;;;12.60;99.90;;;;;;7622908;19;20370;-73
2023/08/30 05:24:58;;;;;;;;;;;12.50;99.90;;;;;;7620744;19;20361;-72
2023/08/30 05:27:30;;;;;;;;;;;12.60;99.90;;;;;;7624287;19;19937;-72
2023/08/30 05:30:03;;;;;;;;;;;12.60;99.90;;;;;;7620982;19;20629;-72
2023/08/30 05:32:37;;;;;;;;;;;12.70;99.90;;;;;;7626965;19;20482;-72
2023/08/30 05:35:23;;;;;;;;;;;12.70;99.90;;;;;;7623006;19;20398;-73
2023/08/30 05:37:55;;;;;;;;;;;12.70;99.90;;;;;;7625816;19;19943;-73
2023/08/30 05:40:44;;;;;;;;;;;12.60;99.90;;;;;;7625140;19;19922;-72
2023/08/30 05:43:18;;;;;;;;;;;12.70;99.90;;;;;;7619055;19;19926;-74
2023/08/30 05:45:50;;;;;;;;;;;12.70;99.90;;;;;;7625173;19;19940;-73
2023/08/30 05:48:23;;;;;;;;;;;12.70;99.90;;;;;;7623869;19;20497;-73
2023/08/30 05:50:57;;;;;;;;;;;12.70;99.90;;;;;;7626269;19;20407;-72
2023/08/30 05:53:29;;;;;;;;;;;12.70;99.90;;;;;;7625589;19;19987;-73
2023/08/30 05:56:02;;;;;;;;;;;12.70;99.90;;;;;;7631887;19;19926;-73
2023/08/30 05:58:35;;;;;;;;;;;12.70;99.90;;;;;;7633427;19;19918;-75
2023/08/30 06:01:07;;;;;;;;;;;12.60;99.90;;;;;;7630696;19;19958;-74
2023/08/30 06:03:41;;;;;;;;;;;12.60;99.90;;;;;;7635684;19;20285;-75
2023/08/30 06:06:13;;;;;;;;;;;12.60;99.90;;;;;;7630586;19;20002;-72
2023/08/30 06:08:46;;;;;;;;;;;12.60;99.90;;;;;;7635475;19;19915;-73
2023/08/30 06:11:18;;;;;;;;;;;12.70;99.90;;;;;;7631619;19;19946;-73
2023/08/30 06:13:51;;;;;;;;;;;12.70;99.90;;;;;;7639413;19;20388;-72
2023/08/30 06:16:23;;;;;;;;;;;12.70;99.90;;;;;;7633692;19;19930;-72
2023/08/30 06:18:58;;;;;;;;;;;12.80;99.90;;;;;;7636690;19;19915;-72
2023/08/30 06:21:31;;;;;;;;;;;12.80;99.90;;;;;;7621750;19;19923;-73
2023/08/30 06:24:03;;;;;;;;;;;12.80;99.90;;;;;;7636696;19;19922;-72
2023/08/30 06:26:36;;;;;;;;;;;12.80;99.90;;;;;;7635220;19;19915;-72
2023/08/30 06:29:08;;;;;;;;;;;12.90;99.90;;;;;;7635684;19;19923;-72
2023/08/30 06:31:42;;;;;;;;;;;12.90;99.90;;;;;;7640628;19;19946;-73
2023/08/30 06:34:14;;;;;;;;;;;13.00;99.90;;;;;;7637773;19;19919;-72
2023/08/30 06:36:48;;;;;;;;;;;13.10;99.90;;;;;;7636220;19;19926;-73
2023/08/30 06:39:20;;;;;;;;;;;13.10;99.90;;;;;;7634966;19;19914;-73
2023/08/30 06:41:53;;;;;;;;;;;13.10;99.90;;;;;;7632947;19;20859;-72
2023/08/30 06:44:25;;;;;;;;;;;13.10;99.90;;;;;;7636708;19;19986;-73
2023/08/30 06:46:58;;;;;;;;;;;13.10;99.90;;;;;;7639550;19;19919;-73
2023/08/30 06:49:33;;;;;;;;;;;13.10;99.90;;;;;;7634430;19;19923;-73
2023/08/30 06:52:06;;;;;;;;;;;13.30;99.90;;;;;;7638526;19;19923;-72
2023/08/30 06:54:38;;;;;;;;;;;13.20;99.90;;;;;;7642389;19;19928;-72
2023/08/30 06:57:11;;;;;;;;;;;13.20;99.90;;;;;;7637318;19;19915;-72
2023/08/30 06:59:43;;;;;;;;;;;13.30;99.90;;;;;;7643942;19;19919;-72
2023/08/30 07:02:16;;;;;;;;;;;13.40;99.90;;;;;;7636470;19;19922;-71
2023/08/30 07:04:48;;;;;;;;;;;13.40;99.90;;;;;;7640680;19;19950;-72
2023/08/30 07:07:20;;;;;;;;;;;13.40;99.90;;;;;;7633510;19;19926;-71
2023/08/30 07:09:53;;;;;;;;;;;13.20;99.90;;;;;;7640121;19;20321;-72
2023/08/30 07:12:25;;;;;;;;;;;13.40;99.90;;;;;;7642281;19;19918;-72
2023/08/30 07:14:57;;;;;;;;;;;13.30;99.90;;;;;;7646986;19;19922;-72
2023/08/30 07:17:30;;;;;;;;;;;13.30;99.90;;;;;;7642832;19;19998;-73
2023/08/30 07:20:21;;;;;;;;;;;13.30;99.90;;;;;;7635388;19;19947;-73
2023/08/30 07:22:54;;;;;;;;;;;13.20;99.90;;;;;;7642715;19;19926;-72
2023/08/30 07:25:26;;;;;;;;;;;13.20;99.90;;;;;;7643815;19;19923;-73
2023/08/30 07:27:59;;;;;;;;;;;13.30;99.90;;;;;;7638068;19;19938;-72
2023/08/30 07:30:32;;;;;;;;;;;13.40;99.90;;;;;;7638594;19;19935;-72
2023/08/30 07:33:04;;;;;;;;;;;13.40;99.90;;;;;;7641619;19;19938;-72
2023/08/30 07:35:39;;;;;;;;;;;13.50;99.90;;;;;;7636788;19;19922;-72
2023/08/30 07:38:11;;;;;;;;;;;13.60;99.90;;;;;;7636050;19;20312;-72
2023/08/30 07:40:43;;;;;;;;;;;13.50;99.90;;;;;;7642359;19;20366;-72
2023/08/30 07:43:17;;;;;;;;;;;13.40;99.90;;;;;;7638223;19;19918;-73
2023/08/30 07:45:50;;;;;;;;;;;13.40;99.90;;;;;;7636183;19;19950;-72
2023/08/30 07:48:22;;;;;;;;;;;13.40;99.90;;;;;;7630720;19;19942;-72
2023/08/30 07:50:54;;;;;;;;;;;13.40;99.90;;;;;;7631399;19;19921;-73
2023/08/30 07:53:27;;;;;;;;;;;13.40;99.90;;;;;;7628514;19;19986;-71
2023/08/30 07:55:59;;;;;;;;;;;13.50;99.90;;;;;;7629729;19;19989;-72
2023/08/30 07:58:31;;;;;;;;;;;13.50;99.90;;;;;;7631323;19;19914;-72
2023/08/30 08:01:04;;;;;;;;;;;13.50;99.90;;;;;;7633732;19;19927;-73
2023/08/30 08:03:36;;;;;;;;;;;13.50;99.90;;;;;;7630770;19;19923;-72
2023/08/30 08:06:16;;;;;;;;;;;13.50;99.90;;;;;;7634169;19;19918;-73
2023/08/30 08:08:49;;;;;;;;;;;13.50;99.90;;;;;;7629422;19;19927;-72
2023/08/30 08:11:21;;;;;;;;;;;13.60;99.90;;;;;;7629688;19;19918;-73
2023/08/30 08:13:54;;;;;;;;;;;13.60;99.90;;;;;;7633364;19;19994;-72
2023/08/30 08:16:28;;;;;;;;;;;13.60;99.90;;;;;;7631962;19;19918;-72
2023/08/30 08:19:01;;;;;;;;;;;13.70;99.90;;;;;;7633561;19;19978;-72
2023/08/30 08:21:34;;;;;;;;;;;13.70;99.90;;;;;;7626388;19;20273;-73
2023/08/30 08:24:06;;;;;;;;;;;13.70;99.90;;;;;;7634614;19;19955;-72
2023/08/30 08:26:39;;;;;;;;;;;13.80;99.90;;;;;;7629345;19;19944;-72
2023/08/30 08:29:11;;;;;;;;;;;13.80;99.90;;;;;;7634050;19;20372;-72
2023/08/30 08:31:44;;;;;;;;;;;13.80;99.90;;;;;;7629379;19;19929;-72
2023/08/30 08:34:17;;;;;;;;;;;13.80;99.90;;;;;;7630551;19;20883;-72
2023/08/30 08:36:49;;;;;;;;;;;13.90;99.90;;;;;;7627606;19;19994;-72
2023/08/30 08:39:22;;;;;;;;;;;13.80;99.90;;;;;;7620930;19;19974;-72
2023/08/30 08:41:54;;;;;;;;;;;13.90;99.90;;;;;;7620313;19;19919;-73
2023/08/30 08:44:31;;;;;;;;;;;13.80;99.90;;;;;;7621425;19;19919;-72
2023/08/30 08:47:03;;;;;;;;;;;13.90;99.90;;;;;;7623021;19;19937;-72
2023/08/30 08:49:36;;;;;;;;;;;13.90;99.90;;;;;;7624055;19;20479;-72
2023/08/30 08:52:09;;;;;;;;;;;13.90;99.90;;;;;;7623762;19;19935;-73
2023/08/30 08:55:01;;;;;;;;;;;14.00;99.90;;;;;;7623335;19;20332;-73
2023/08/30 08:57:34;;;;;;;;;;;14.00;99.90;;;;;;7618990;19;20503;-73
2023/08/30 09:00:07;;;;;;;;;;;14.00;99.90;;;;;;7619833;19;19922;-73
2023/08/30 09:02:40;;;;;;;;;;;14.20;99.90;;;;;;7623464;19;19986;-72
2023/08/30 09:05:13;;;;;;;;;;;14.40;99.90;;;;;;7620009;19;19975;-73
2023/08/30 09:07:46;;;;;;;;;;;14.40;99.90;;;;;;7621098;19;19942;-72
2023/08/30 09:10:20;;;;;;;;;;;14.60;99.90;;;;;;7618936;19;19922;-73
2023/08/30 09:12:52;;;;;;;;;;;14.70;99.90;;;;;;7617158;19;19918;-71
2023/08/30 09:15:36;;;;;;;;;;;14.70;99.90;;;;;;7618502;19;19919;-73
2023/08/30 09:18:16;;;;;;;;;;;14.90;99.90;;;;;;7621377;19;19931;-72
2023/08/30 09:20:49;;;;;;;;;;;15.10;99.90;;;;;;7617525;19;19931;-74
2023/08/30 09:23:21;;;;;;;;;;;15.10;99.90;;;;;;7619071;19;19978;-73
2023/08/30 09:25:54;;;;;;;;;;;15.10;99.90;;;;;;7618193;19;19918;-72
2023/08/30 09:28:27;;;;;;;;;;;15.30;99.90;;;;;;7618144;19;19931;-73
2023/08/30 09:31:00;;;;;;;;;;;15.50;99.90;;;;;;7624410;19;19979;-73
2023/08/30 09:33:48;;;;;;;;;;;15.60;99.90;;;;;;7626396;19;19960;-73
2023/08/30 09:36:21;;;;;;;;;;;15.60;99.90;;;;;;7627224;19;19937;-72
2023/08/30 09:38:53;;;;;;;;;;;15.50;99.90;;;;;;7629868;19;19994;-73
2023/08/30 09:41:26;;;;;;;;;;;15.60;99.90;;;;;;7620944;19;19927;-73
2023/08/30 09:43:59;;;;;;;;;;;15.70;99.90;;;;;;7628954;19;20002;-72
2023/08/30 09:46:46;;;;;;;;;;;15.60;99.90;;;;;;7626634;19;19927;-73
2023/08/30 09:49:24;;;;;;;;;;;15.70;99.90;;;;;;7627384;19;19914;-73
2023/08/30 09:51:59;;;;;;;;;;;15.80;99.90;;;;;;7624970;19;19922;-74
2023/08/30 09:54:34;;;;;;;;;;;16.00;99.90;;;;;;7622514;19;20529;-72
2023/08/30 09:57:12;;;;;;;;;;;16.30;99.90;;;;;;7623593;19;20474;-73
2023/08/30 09:59:45;;;;;;;;;;;16.30;99.90;;;;;;7624034;19;19927;-72
2023/08/30 10:02:18;;;;;;;;;;;16.20;99.90;;;;;;7619001;19;19986;-74
2023/08/30 10:04:52;;;;;;;;;;;16.40;99.90;;;;;;7620192;19;19930;-73
2023/08/30 10:07:24;;;;;;;;;;;16.50;99.90;;;;;;7617820;19;20374;-72
2023/08/30 10:09:58;;;;;;;;;;;16.60;99.90;;;;;;7623151;19;19921;-72
2023/08/30 10:12:42;;;;;;;;;;;16.30;99.90;;;;;;7621796;19;19933;-73
2023/08/30 10:15:26;;;;;;;;;;;16.30;99.90;;;;;;7625927;19;19953;-74
2023/08/30 10:18:00;;;;;;;;;;;16.50;99.90;;;;;;7621248;19;19918;-74
2023/08/30 10:20:34;;;;;;;;;;;16.50;99.90;;;;;;7611457;19;19927;-73
2023/08/30 10:23:08;;;;;;;;;;;16.50;99.90;;;;;;7617804;19;20455;-74
2023/08/30 10:25:43;;;;;;;;;;;16.60;99.90;;;;;;7617571;19;19922;-74
2023/08/30 10:28:16;;;;;;;;;;;16.80;99.90;;;;;;7620943;19;19989;-74
2023/08/30 10:30:48;;;;;;;;;;;16.90;99.90;;;;;;7618133;19;20005;-73
2023/08/30 10:33:25;;;;;;;;;;;17.00;99.90;;;;;;7617877;19;19926;-73
2023/08/30 10:36:05;;;;;;;;;;;17.10;99.90;;;;;;7619492;19;19926;-73
2023/08/30 10:38:40;;;;;;;;;;;17.20;99.90;;;;;;7612835;19;19989;-74
2023/08/30 10:41:12;;;;;;;;;;;17.40;99.90;;;;;;7611705;19;19933;-73
2023/08/30 10:43:49;;;;;;;;;;;17.50;99.90;;;;;;7610973;19;19922;-73
2023/08/30 10:46:32;;;;;;;;;;;17.50;99.90;;;;;;7614263;19;21105;-73
2023/08/30 10:49:14;;;;;;;;;;;17.40;99.90;;;;;;7614171;19;19923;-73
2023/08/30 10:51:54;;;;;;;;;;;17.50;99.90;;;;;;7604450;19;19929;-73
2023/08/30 10:54:36;;;;;;;;;;;17.40;99.90;;;;;;7613865;19;20663;-73
2023/08/30 10:57:13;;;;;;;;;;;17.30;99.90;;;;;;7606696;19;19915;-73
2023/08/30 11:00:04;;;;;;;;;;;17.00;99.90;;;;;;7608316;19;20538;-74
2023/08/30 11:02:37;;;;;;;;;;;17.00;99.90;;;;;;7611197;19;19932;-73
2023/08/30 11:05:10;;;;;;;;;;;16.90;99.90;;;;;;7617327;19;19950;-74
2023/08/30 11:07:46;;;;;;;;;;;16.90;99.90;;;;;;7609140;19;21790;-72
2023/08/30 11:10:19;;;;;;;;;;;16.80;99.90;;;;;;7617744;19;19958;-73
2023/08/30 11:12:51;;;;;;;;;;;16.80;99.90;;;;;;7610258;19;19922;-73
2023/08/30 11:15:25;;;;;;;;;;;16.90;99.90;;;;;;7614111;19;19921;-73
2023/08/30 11:18:05;;;;;;;;;;;17.10;99.90;;;;;;7611809;19;19910;-74
2023/08/30 11:20:38;;;;;;;;;;;17.30;99.90;;;;;;7611435;19;20022;-73
2023/08/30 11:23:11;;;;;;;;;;;17.40;99.90;;;;;;7615665;19;19926;-73
2023/08/30 11:25:49;;;;;;;;;;;17.50;99.90;;;;;;7616072;19;20277;-73
2023/08/30 11:28:25;;;;;;;;;;;17.80;99.90;;;;;;7609452;19;19922;-74
2023/08/30 11:30:58;;;;;;;;;;;18.20;99.90;;;;;;7607575;19;19914;-74
2023/08/30 11:33:31;;;;;;;;;;;18.40;99.90;;;;;;7608707;19;20501;-74
2023/08/30 11:36:04;;;;;;;;;;;18.00;99.90;;;;;;7614196;19;19927;-73
2023/08/30 11:38:37;;;;;;;;;;;17.90;99.90;;;;;;7609913;19;19918;-74
2023/08/30 11:41:10;;;;;;;;;;;17.90;99.90;;;;;;7612170;19;19941;-74
2023/08/30 11:43:43;;;;;;;;;;;17.90;99.90;;;;;;7617261;19;20021;-74
2023/08/30 11:46:19;;;;;;;;;;;17.90;99.90;;;;;;7615806;19;19919;-74
2023/08/30 11:48:52;;;;;;;;;;;17.90;99.90;;;;;;7609208;19;19918;-74
2023/08/30 11:51:25;;;;;;;;;;;17.90;99.90;;;;;;7613830;19;19918;-74
2023/08/30 11:53:57;;;;;;;;;;;17.90;99.90;;;;;;7611003;19;19940;-74
2023/08/30 11:56:30;;;;;;;;;;;18.20;99.90;;;;;;7604809;19;19918;-73
2023/08/30 11:59:04;;;;;;;;;;;18.40;99.90;;;;;;7608831;19;20827;-73
2023/08/30 12:01:37;;;;;;;;;;;18.70;99.90;;;;;;7611921;19;19934;-73
2023/08/30 12:04:10;;;;;;;;;;;18.70;99.90;;;;;;7612347;19;19927;-73
2023/08/30 12:06:43;;;;;;;;;;;18.80;99.90;;;;;;7603576;19;20529;-73
2023/08/30 12:09:16;;;;;;;;;;;18.80;99.90;;;;;;7609856;19;19927;-73
2023/08/30 12:11:48;;;;;;;;;;;19.30;99.90;;;;;;7604698;19;20919;-73
2023/08/30 12:14:21;;;;;;;;;;;19.90;99.90;;;;;;7610357;19;19930;-74
2023/08/30 12:16:53;;;;;;;;;;;20.30;99.90;;;;;;7611120;19;20039;-74
2023/08/30 12:19:28;;;;;;;;;;;20.60;99.90;;;;;;7609272;19;19919;-74
2023/08/30 12:22:04;;;;;;;;;;;20.80;99.90;;;;;;7609907;19;19918;-74
2023/08/30 12:24:43;;;;;;;;;;;21.10;99.90;;;;;;7607886;19;19922;-74
2023/08/30 12:27:15;;;;;;;;;;;21.10;99.90;;;;;;7608547;19;19918;-74
2023/08/30 12:29:47;;;;;;;;;;;21.30;99.90;;;;;;7615936;19;19918;-73
2023/08/30 12:32:19;;;;;;;;;;;21.80;99.90;;;;;;7613744;19;20021;-74
2023/08/30 12:34:51;;;;;;;;;;;22.20;99.20;;;;;;7609807;19;19930;-74
2023/08/30 12:37:24;;;;;;;;;;;22.20;98.80;;;;;;7603605;19;20507;-74
2023/08/30 12:39:56;;;;;;;;;;;21.70;98.20;;;;;;7611358;19;19914;-74
2023/08/30 12:42:28;;;;;;;;;;;21.50;99.90;;;;;;7609358;19;20480;-74
2023/08/30 12:45:00;;;;;;;;;;;21.30;99.90;;;;;;7613245;19;19946;-74
2023/08/30 12:47:33;;;;;;;;;;;21.00;99.90;;;;;;7610507;19;19926;-74
2023/08/30 12:50:05;;;;;;;;;;;20.40;99.80;;;;;;7611512;19;19918;-73
2023/08/30 12:52:37;;;;;;;;;;;20.00;99.90;;;;;;7610172;19;19937;-73
2023/08/30 12:55:10;;;;;;;;;;;19.80;99.90;;;;;;7608936;19;19939;-74
2023/08/30 12:57:46;;;;;;;;;;;19.60;99.90;;;;;;7610562;19;19925;-74
2023/08/30 13:00:18;;;;;;;;;;;19.50;99.90;;;;;;7609816;19;19926;-74
2023/08/30 13:02:50;;;;;;;;;;;19.40;99.90;;;;;;7606768;19;19919;-74
2023/08/30 13:05:22;;;;;;;;;;;19.10;99.90;;;;;;7605379;19;19922;-73
2023/08/30 13:07:55;;;;;;;;;;;19.00;99.90;;;;;;7605532;19;19933;-73
2023/08/30 13:10:27;;;;;;;;;;;18.90;99.90;;;;;;7610546;19;19970;-72
2023/08/30 13:12:59;;;;;;;;;;;18.70;99.90;;;;;;7606456;19;19926;-74
2023/08/30 13:15:32;;;;;;;;;;;18.50;99.90;;;;;;7610907;19;19950;-73
2023/08/30 13:18:04;;;;;;;;;;;18.50;99.90;;;;;;7607703;19;19919;-74
2023/08/30 13:20:39;;;;;;;;;;;18.60;99.90;;;;;;7607702;19;20855;-74
2023/08/30 13:23:11;;;;;;;;;;;18.60;99.90;;;;;;7600320;19;19934;-74
2023/08/30 13:25:43;;;;;;;;;;;18.60;99.90;;;;;;7604100;19;19958;-73
2023/08/30 13:28:16;;;;;;;;;;;18.60;99.90;;;;;;7614380;19;19929;-73
2023/08/30 13:30:50;;;;;;;;;;;18.60;99.90;;;;;;7610090;19;19926;-74
2023/08/30 13:33:22;;;;;;;;;;;18.60;99.90;;;;;;7608754;19;19923;-74
2023/08/30 13:35:55;;;;;;;;;;;18.70;99.90;;;;;;7608458;19;19931;-73
2023/08/30 13:38:28;;;;;;;;;;;18.60;99.90;;;;;;7605304;19;19911;-73
2023/08/30 13:41:01;;;;;;;;;;;18.70;99.90;;;;;;7612534;19;19919;-74
2023/08/30 13:43:33;;;;;;;;;;;18.50;99.90;;;;;;7606593;19;19918;-75
2023/08/30 13:46:05;;;;;;;;;;;18.40;99.90;;;;;;7612386;19;20303;-74
2023/08/30 13:48:37;;;;;;;;;;;18.30;99.90;;;;;;7607645;19;20515;-74
2023/08/30 13:51:09;;;;;;;;;;;18.20;99.90;;;;;;7609088;19;19922;-74
2023/08/30 13:53:42;;;;;;;;;;;18.30;99.90;;;;;;7608045;19;22512;-73
2023/08/30 13:56:14;;;;;;;;;;;18.40;99.90;;;;;;7611428;19;19922;-74
2023/08/30 13:58:46;;;;;;;;;;;18.30;99.90;;;;;;7601920;19;19985;-75
2023/08/30 14:01:18;;;;;;;;;;;18.20;99.90;;;;;;7610933;19;19926;-74
2023/08/30 14:03:51;;;;;;;;;;;18.20;99.90;;;;;;7608937;19;19938;-73
2023/08/30 14:06:24;;;;;;;;;;;18.10;99.90;;;;;;7604635;19;20589;-74
2023/08/30 14:08:56;;;;;;;;;;;18.10;99.90;;;;;;7599810;19;19914;-74
2023/08/30 14:11:29;;;;;;;;;;;17.90;99.90;;;;;;7609422;19;19929;-75
2023/08/30 14:14:02;;;;;;;;;;;17.80;99.90;;;;;;7605037;19;20838;-74
2023/08/30 14:16:36;;;;;;;;;;;17.80;99.90;;;;;;7613314;19;20484;-74
2023/08/30 14:19:09;;;;;;;;;;;17.80;99.90;;;;;;7614314;19;19918;-74
2023/08/30 14:21:41;;;;;;;;;;;17.60;99.90;;;;;;7615326;19;19926;-74
2023/08/30 14:24:17;;;;;;;;;;;17.60;99.90;;;;;;7616602;19;19927;-75
2023/08/30 14:26:49;;;;;;;;;;;17.60;99.90;;;;;;7602075;19;19915;-73
2023/08/30 14:29:22;;;;;;;;;;;17.60;99.90;;;;;;7612935;19;19922;-74
2023/08/30 14:31:54;;;;;;;;;;;17.40;99.90;;;;;;7612707;19;19930;-75
2023/08/30 14:34:30;;;;;;;;;;;17.40;99.90;;;;;;7607697;19;19923;-74
2023/08/30 14:37:03;;;;;;;;;;;17.30;99.90;;;;;;7615862;19;19972;-74
2023/08/30 14:39:35;;;;;;;;;;;17.30;99.90;;;;;;7615724;19;19927;-75
2023/08/30 14:42:08;;;;;;;;;;;17.10;99.90;;;;;;7613550;19;20899;-74
2023/08/30 14:44:40;;;;;;;;;;;17.00;99.90;;;;;;7616953;19;19922;-74
2023/08/30 14:47:14;;;;;;;;;;;16.90;99.90;;;;;;7613845;19;19919;-74
2023/08/30 14:49:46;;;;;;;;;;;16.80;99.90;;;;;;7614519;19;19929;-73
2023/08/30 14:52:19;;;;;;;;;;;16.70;99.90;;;;;;7615336;19;19922;-74